Time;durP1;ratioP1;P1;durP2;ratioP2;P2;SDS_P1;SDS_P2;PMS_P1;PMS_P2;Temp;Humidity;BMP_temperature;BMP_pressure;BME280_temperature;BME280_humidity;BME280_pressure;Samples;Min_cycle;Max_cycle;Signal;HPM_P1;HPM_P2
2023/04/04 00:01:07;;;;;;;20.90;4.70;;;;;;;5.43;47.77;99589.70;68317;1282;1015567;-62
2023/04/04 00:04:09;;;;;;;14.30;3.90;;;;;;;5.34;47.92;99586.65;68302;1282;1016096;-62
2023/04/04 00:07:12;;;;;;;19.60;4.70;;;;;;;5.32;48.23;99583.77;68315;1282;1015966;-62
2023/04/04 00:10:14;;;;;;;18.10;4.00;;;;;;;5.32;47.86;99582.36;68308;1282;1016008;-62
2023/04/04 00:13:16;;;;;;;18.90;4.30;;;;;;;5.34;47.73;99583.02;68316;1282;1015691;-62
2023/04/04 00:16:19;;;;;;;19.40;4.50;;;;;;;5.31;47.96;99575.99;68312;1282;1015875;-62
2023/04/04 00:19:21;;;;;;;17.30;4.10;;;;;;;5.29;47.77;99575.89;68303;1282;1014652;-62
2023/04/04 00:22:24;;;;;;;18.80;4.10;;;;;;;5.29;47.73;99574.81;68305;1282;1016089;-62
2023/04/04 00:25:26;;;;;;;20.90;4.10;;;;;;;5.25;47.90;99574.25;68314;1282;1016047;-62
2023/04/04 00:28:28;;;;;;;20.40;4.70;;;;;;;5.20;47.84;99566.57;68306;1282;1015602;-62
2023/04/04 00:31:31;;;;;;;16.70;4.10;;;;;;;5.18;47.82;99570.44;68315;1282;1015449;-62
2023/04/04 00:34:35;;;;;;;19.20;4.40;;;;;;;5.12;48.02;99564.55;68319;1282;1016291;-62
2023/04/04 00:37:37;;;;;;;18.50;4.10;;;;;;;5.03;48.25;99564.23;68317;1282;1015913;-62
2023/04/04 00:40:40;;;;;;;19.00;4.60;;;;;;;4.94;48.36;99570.04;68320;1282;1015806;-62
2023/04/04 00:43:42;;;;;;;20.70;4.70;;;;;;;4.84;48.36;99559.90;68310;1282;1015801;-61
2023/04/04 00:46:44;;;;;;;18.10;4.50;;;;;;;4.79;48.62;99558.98;68314;1282;1015646;-62
2023/04/04 00:49:47;;;;;;;17.20;4.10;;;;;;;4.76;48.79;99564.08;68315;1282;1015786;-62
2023/04/04 00:52:49;;;;;;;17.20;4.20;;;;;;;4.71;48.91;99561.94;68310;1282;1015415;-62
2023/04/04 00:55:52;;;;;;;18.30;4.10;;;;;;;4.63;48.57;99563.88;68317;1282;1015702;-62
2023/04/04 00:58:54;;;;;;;15.50;3.90;;;;;;;4.61;48.82;99560.64;68325;1282;1015412;-62
2023/04/04 01:01:56;;;;;;;20.10;4.50;;;;;;;4.55;48.88;99558.55;68319;1282;1017814;-62
2023/04/04 01:04:59;;;;;;;18.80;4.40;;;;;;;4.44;49.20;99556.03;68321;1282;1014307;-62
2023/04/04 01:08:02;;;;;;;19.10;4.80;;;;;;;4.34;49.29;99559.74;68317;1282;1015803;-62
2023/04/04 01:11:05;;;;;;;18.80;4.60;;;;;;;4.33;49.62;99563.41;68301;1267;1015279;-62
2023/04/04 01:14:07;;;;;;;;;;;;;;;4.25;49.73;99564.80;68327;1282;1015529;-62
2023/04/04 01:17:09;;;;;;;16.60;4.30;;;;;;;4.18;49.89;99565.84;68328;1282;1016611;-62
2023/04/04 01:20:12;;;;;;;18.50;4.50;;;;;;;4.13;49.92;99563.35;65742;1282;5365992;-62
2023/04/04 01:23:15;;;;;;;;;;;;;;;4.07;50.33;99565.19;68323;1282;1016145;-62
2023/04/04 01:26:17;;;;;;;21.90;4.40;;;;;;;4.04;50.25;99573.23;68329;1282;1015783;-62
2023/04/04 01:29:20;;;;;;;19.70;4.50;;;;;;;4.02;50.34;99581.40;68314;1282;1015773;-63
2023/04/04 01:32:22;;;;;;;21.70;4.60;;;;;;;3.96;50.43;99583.79;68311;1282;1015881;-62
2023/04/04 01:35:25;;;;;;;18.10;4.10;;;;;;;3.98;50.26;99579.77;68300;1282;1015302;-62
2023/04/04 01:38:35;;;;;;;19.00;4.40;;;;;;;4.05;50.10;99569.94;68294;1282;1016283;-62
2023/04/04 01:41:38;;;;;;;17.90;4.20;;;;;;;4.01;50.36;99570.70;68319;1282;1015736;-62
2023/04/04 01:44:40;;;;;;;19.60;4.40;;;;;;;3.96;50.40;99572.53;68316;1282;1015748;-62
2023/04/04 01:47:43;;;;;;;20.50;4.60;;;;;;;3.97;50.61;99570.77;68325;1282;1016478;-62
2023/04/04 01:50:46;;;;;;;26.90;6.80;;;;;;;3.91;50.34;99569.86;68304;1282;1015809;-62
2023/04/04 01:53:48;;;;;;;24.50;7.30;;;;;;;3.85;50.69;99566.91;68328;1282;1015651;-63
2023/04/04 01:56:51;;;;;;;22.50;5.50;;;;;;;3.79;50.97;99569.80;68310;1282;1016326;-62
2023/04/04 01:59:54;;;;;;;20.90;5.10;;;;;;;3.72;51.16;99575.83;68330;1282;1016058;-62
2023/04/04 02:02:57;;;;;;;20.00;4.90;;;;;;;3.60;51.32;99572.27;68318;1282;1016061;-62
2023/04/04 02:06:00;;;;;;;22.50;5.40;;;;;;;3.57;51.70;99571.64;68325;1282;1015622;-62
2023/04/04 02:09:03;;;;;;;23.40;5.60;;;;;;;3.52;51.88;99574.84;68334;1282;1015712;-62
2023/04/04 02:12:05;;;;;;;24.80;6.80;;;;;;;3.54;51.75;99581.73;68309;1282;1016464;-62
2023/04/04 02:15:08;;;;;;;25.40;7.00;;;;;;;3.43;52.14;99584.37;68310;1282;1016386;-62
2023/04/04 02:18:10;;;;;;;22.50;5.80;;;;;;;3.41;52.08;99587.34;68314;1282;1015275;-62
2023/04/04 02:21:13;;;;;;;22.60;5.50;;;;;;;3.37;52.31;99590.02;68314;1282;1015981;-62
2023/04/04 02:24:15;;;;;;;21.20;5.80;;;;;;;3.34;52.38;99589.39;68301;1282;1015814;-62
2023/04/04 02:27:17;;;;;;;22.40;6.30;;;;;;;3.22;52.52;99594.45;68303;1282;1016237;-62
2023/04/04 02:30:20;;;;;;;23.70;5.70;;;;;;;3.17;52.74;99589.90;68302;1282;1015722;-62
2023/04/04 02:33:22;;;;;;;22.00;5.10;;;;;;;3.20;52.80;99594.31;68320;1282;1016196;-62
2023/04/04 02:36:24;;;;;;;23.80;5.60;;;;;;;3.23;52.59;99593.04;68306;1282;1016058;-62
2023/04/04 02:39:27;;;;;;;19.20;5.10;;;;;;;3.14;53.00;99589.58;68317;1282;1015249;-62
2023/04/04 02:42:29;;;;;;;21.20;5.50;;;;;;;3.19;53.14;99592.10;68312;1282;1015742;-62
2023/04/04 02:45:31;;;;;;;20.00;5.00;;;;;;;3.22;53.00;99593.08;68335;1282;1015267;-62
2023/04/04 02:48:35;;;;;;;21.40;5.80;;;;;;;3.09;53.24;99594.84;68320;1282;1015611;-62
2023/04/04 02:51:37;;;;;;;22.90;5.20;;;;;;;3.08;53.36;99592.11;68322;1282;1015288;-62
2023/04/04 02:54:39;;;;;;;26.10;5.20;;;;;;;2.98;53.66;99596.95;68310;1282;1015788;-63
2023/04/04 02:57:42;;;;;;;20.50;4.90;;;;;;;3.04;53.64;99592.69;68320;1282;1015479;-62
2023/04/04 03:00:46;;;;;;;22.70;5.60;;;;;;;3.05;53.58;99592.50;68317;1282;1015369;-62
2023/04/04 03:03:48;;;;;;;19.20;5.00;;;;;;;3.05;53.71;99590.78;68332;1282;1016237;-62
2023/04/04 03:06:51;;;;;;;19.50;4.90;;;;;;;3.03;53.79;99586.33;68319;1282;1015337;-62
2023/04/04 03:09:53;;;;;;;;;;;;;;;3.14;53.93;99585.44;68330;1282;1015783;-62
2023/04/04 03:12:56;;;;;;;21.40;5.50;;;;;;;3.37;53.82;99591.04;68318;1282;1015919;-62
2023/04/04 03:15:58;;;;;;;25.20;5.50;;;;;;;3.51;53.52;99589.22;68308;1282;1015577;-62
2023/04/04 03:19:01;;;;;;;23.50;7.00;;;;;;;3.58;52.93;99585.61;68313;1282;1015363;-62
2023/04/04 03:22:03;;;;;;;22.80;6.20;;;;;;;3.67;52.85;99586.64;68303;1282;1015725;-62
2023/04/04 03:25:06;;;;;;;18.80;5.10;;;;;;;3.60;53.07;99583.85;68307;1282;1016165;-62
2023/04/04 03:28:08;;;;;;;16.90;4.50;;;;;;;3.48;53.18;99589.80;68312;1282;1015414;-62
2023/04/04 03:31:11;;;;;;;;;;;;;;;3.49;53.14;99589.09;68319;1282;1015926;-62
2023/04/04 03:34:13;;;;;;;21.90;5.70;;;;;;;3.49;53.06;99587.35;68313;1282;1015958;-62
2023/04/04 03:37:15;;;;;;;21.70;5.20;;;;;;;3.51;53.11;99583.34;68326;1282;1016066;-62
2023/04/04 03:40:18;;;;;;;21.10;4.90;;;;;;;3.26;53.66;99584.02;68308;1282;1015935;-62
2023/04/04 03:43:20;;;;;;;20.20;4.80;;;;;;;3.24;53.53;99586.45;68331;1282;1015726;-62
2023/04/04 03:46:23;;;;;;;24.20;5.40;;;;;;;3.32;53.41;99583.04;68316;1282;1015389;-62
2023/04/04 03:49:26;;;;;;;23.60;5.30;;;;;;;3.42;53.55;99582.84;68302;1282;1015448;-62
2023/04/04 03:52:28;;;;;;;22.20;5.90;;;;;;;3.39;53.70;99577.89;68323;1282;1015841;-62
2023/04/04 03:55:31;;;;;;;24.00;6.50;;;;;;;3.34;53.87;99580.04;68324;1282;1015498;-62
2023/04/04 03:58:33;;;;;;;20.70;5.00;;;;;;;3.32;53.96;99579.91;68334;1282;1015661;-62
2023/04/04 04:01:36;;;;;;;29.60;5.10;;;;;;;3.30;54.34;99580.64;68321;1282;1015812;-62
2023/04/04 04:04:38;;;;;;;19.50;4.90;;;;;;;3.27;54.77;99580.54;68327;1282;1015312;-62
2023/04/04 04:07:40;;;;;;;17.10;4.70;;;;;;;3.23;54.92;99577.81;68316;1282;1015571;-61
2023/04/04 04:10:43;;;;;;;18.60;4.70;;;;;;;3.12;55.12;99573.54;68333;1282;1015902;-62
2023/04/04 04:13:45;;;;;;;17.90;4.80;;;;;;;3.06;55.27;99574.35;68319;1282;1015908;-62
2023/04/04 04:16:47;;;;;;;21.40;5.30;;;;;;;3.14;55.34;99574.88;68310;1282;1016167;-62
2023/04/04 04:19:50;;;;;;;19.70;5.30;;;;;;;3.16;55.14;99571.23;68321;1282;1016127;-62
2023/04/04 04:22:52;;;;;;;19.80;4.90;;;;;;;3.24;54.86;99569.52;68313;1282;1016058;-62
2023/04/04 04:25:54;;;;;;;24.30;5.50;;;;;;;3.21;55.00;99571.80;68316;1282;1016264;-62
2023/04/04 04:28:57;;;;;;;18.10;4.30;;;;;;;3.29;54.62;99573.58;68320;1282;1015423;-62
2023/04/04 04:32:00;;;;;;;17.40;4.40;;;;;;;3.31;54.62;99574.04;68308;1282;1015741;-62
2023/04/04 04:35:02;;;;;;;20.50;5.20;;;;;;;3.32;54.67;99573.34;68318;1282;1015615;-62
2023/04/04 04:38:05;;;;;;;17.80;4.70;;;;;;;3.35;54.50;99568.95;68295;1282;1015745;-62
2023/04/04 04:41:08;;;;;;;19.90;5.40;;;;;;;3.27;54.78;99575.34;68313;1282;1016739;-62
2023/04/04 04:44:10;;;;;;;17.50;4.40;;;;;;;3.23;54.88;99572.13;68310;1282;1014493;-62
2023/04/04 04:47:13;;;;;;;18.20;5.00;;;;;;;3.30;54.77;99571.31;68316;1282;1015473;-62
2023/04/04 04:50:16;;;;;;;19.10;4.60;;;;;;;3.52;54.06;99571.74;68308;1282;1016504;-62
2023/04/04 04:53:18;;;;;;;17.90;4.10;;;;;;;3.55;53.99;99578.59;68307;1282;1015355;-62
2023/04/04 04:56:21;;;;;;;19.70;4.60;;;;;;;3.57;53.99;99576.81;68315;1282;1015521;-62
2023/04/04 04:59:23;;;;;;;17.10;4.10;;;;;;;3.44;54.28;99574.66;68322;1282;1015499;-62
2023/04/04 05:02:26;;;;;;;16.90;4.30;;;;;;;3.34;54.50;99578.15;68319;1282;1015170;-61
2023/04/04 05:05:28;;;;;;;16.70;4.00;;;;;;;3.34;54.42;99579.71;68319;1282;1015467;-62
2023/04/04 05:08:31;;;;;;;17.10;4.00;;;;;;;3.32;54.30;99583.39;68313;1282;1015953;-62
2023/04/04 05:11:33;;;;;;;20.50;4.20;;;;;;;3.31;54.32;99591.17;68319;1282;1015940;-62
2023/04/04 05:14:36;;;;;;;15.50;4.20;;;;;;;3.33;54.30;99589.92;68330;1282;1015410;-62
2023/04/04 05:17:39;;;;;;;18.80;4.40;;;;;;;3.30;54.41;99590.48;68311;1282;1015307;-62
2023/04/04 05:20:41;;;;;;;19.30;4.10;;;;;;;3.35;54.69;99586.77;68339;1282;1015791;-62
2023/04/04 05:23:44;;;;;;;18.90;4.40;;;;;;;3.53;54.22;99589.54;68324;1282;1015394;-62
2023/04/04 05:26:46;;;;;;;20.00;4.30;;;;;;;3.76;54.32;99585.95;68314;1282;1015604;-62
2023/04/04 05:29:50;;;;;;;18.90;4.20;;;;;;;3.76;53.80;99587.52;68317;1282;1016452;-62
2023/04/04 05:32:52;;;;;;;18.70;3.90;;;;;;;3.82;53.66;99588.27;68318;1282;1015910;-62
2023/04/04 05:35:55;;;;;;;18.10;4.30;;;;;;;3.80;53.75;99583.93;68313;1282;1016100;-62
2023/04/04 05:38:57;;;;;;;17.70;4.20;;;;;;;3.96;53.30;99585.17;68320;1282;1015292;-62
2023/04/04 05:41:59;;;;;;;19.70;4.20;;;;;;;4.15;53.08;99588.71;68327;1282;1015541;-62
2023/04/04 05:45:02;;;;;;;16.50;4.10;;;;;;;4.30;53.46;99585.98;68319;1282;1015135;-62
2023/04/04 05:48:04;;;;;;;16.60;3.90;;;;;;;4.46;52.79;99582.31;68324;1282;1015854;-62
2023/04/04 05:51:07;;;;;;;15.90;3.50;;;;;;;4.41;52.43;99589.89;68321;1282;1016131;-62
2023/04/04 05:54:12;;;;;;;16.90;3.90;;;;;;;4.41;53.24;99584.67;68311;1282;1015781;-62
2023/04/04 05:57:15;;;;;;;15.50;3.60;;;;;;;4.58;52.70;99584.10;68319;1282;1014936;-62
2023/04/04 06:00:18;;;;;;;16.80;3.70;;;;;;;4.60;52.07;99583.70;68315;1282;1016011;-61
2023/04/04 06:03:20;;;;;;;17.70;3.30;;;;;;;4.48;52.38;99584.67;68307;1282;1016116;-62
2023/04/04 06:06:23;;;;;;;14.50;3.60;;;;;;;4.46;52.56;99587.33;68321;1282;1015290;-62
2023/04/04 06:09:26;;;;;;;17.60;4.10;;;;;;;4.69;52.61;99587.99;68315;1282;1015174;-62
2023/04/04 06:12:28;;;;;;;16.20;3.60;;;;;;;4.93;52.06;99588.60;68304;1282;1015662;-62
2023/04/04 06:15:30;;;;;;;16.60;3.40;;;;;;;4.95;51.63;99583.34;68312;1282;1015515;-62
2023/04/04 06:18:33;;;;;;;18.70;4.10;;;;;;;4.87;51.85;99583.91;68320;1282;1016133;-62
2023/04/04 06:21:35;;;;;;;15.40;4.00;;;;;;;4.94;51.40;99583.73;68331;1282;1015533;-62
2023/04/04 06:24:37;;;;;;;14.10;3.40;;;;;;;5.05;50.91;99585.89;68313;1282;1015573;-61
2023/04/04 06:27:40;;;;;;;19.30;3.50;;;;;;;4.92;50.89;99586.70;68324;1282;1015291;-61
2023/04/04 06:30:42;;;;;;;18.30;3.60;;;;;;;4.98;51.23;99586.21;68328;1282;1016196;-62
2023/04/04 06:33:45;;;;;;;15.90;4.00;;;;;;;5.13;51.38;99591.20;68308;1282;1015418;-62
2023/04/04 06:36:47;;;;;;;15.90;4.00;;;;;;;5.14;51.97;99591.89;68331;1282;1016505;-62
2023/04/04 06:39:49;;;;;;;15.60;3.90;;;;;;;5.32;50.56;99591.73;68301;1282;1015374;-62
2023/04/04 06:42:53;;;;;;;17.50;3.80;;;;;;;5.47;50.39;99584.22;68325;1282;1015824;-62
2023/04/04 06:45:56;;;;;;;16.70;4.30;;;;;;;5.62;50.62;99576.52;68313;1282;1016172;-62
2023/04/04 06:48:58;;;;;;;18.80;3.80;;;;;;;5.85;50.64;99574.98;68316;1282;1015600;-61
2023/04/04 06:52:01;;;;;;;14.50;3.70;;;;;;;6.10;49.84;99574.44;68317;1282;1016049;-62
2023/04/04 06:55:03;;;;;;;15.60;3.70;;;;;;;6.13;49.69;99573.84;68307;1282;1016162;-62
2023/04/04 06:58:05;;;;;;;17.60;3.90;;;;;;;6.19;49.20;99582.67;68320;1282;1015731;-62
2023/04/04 07:01:08;;;;;;;14.90;3.60;;;;;;;6.09;48.92;99576.70;68303;1282;1015994;-61
2023/04/04 07:04:10;;;;;;;16.90;3.80;;;;;;;6.02;49.17;99575.55;68333;1282;1015309;-62
2023/04/04 07:07:13;;;;;;;15.10;3.60;;;;;;;6.17;48.87;99572.15;68325;1282;1016459;-61
2023/04/04 07:10:15;;;;;;;18.60;3.90;;;;;;;6.17;48.53;99576.83;68331;1282;1016086;-62
2023/04/04 07:13:17;;;;;;;22.30;4.20;;;;;;;6.31;48.51;99572.39;68313;1282;1015875;-61
2023/04/04 07:16:20;;;;;;;16.00;3.80;;;;;;;6.32;48.49;99576.02;68302;1282;1015427;-62
2023/04/04 07:19:27;;;;;;;18.70;3.90;;;;;;;6.47;48.35;99575.20;68316;1282;1015392;-62
2023/04/04 07:22:30;;;;;;;13.80;3.40;;;;;;;6.49;48.10;99580.86;68326;1282;1015391;-62
2023/04/04 07:25:32;;;;;;;;;;;;;;;6.69;48.41;99570.30;68341;1282;1015925;-61
2023/04/04 07:28:34;;;;;;;16.90;3.50;;;;;;;6.83;47.59;99574.55;68311;1282;1015977;-61
2023/04/04 07:31:37;;;;;;;14.40;3.30;;;;;;;6.80;47.49;99573.77;68324;1282;1015721;-62
2023/04/04 07:34:39;;;;;;;13.40;3.30;;;;;;;6.94;47.35;99569.84;68308;1282;1015377;-62
2023/04/04 07:37:42;;;;;;;17.10;3.90;;;;;;;7.05;46.75;99574.48;68299;1282;1015493;-61
2023/04/04 07:40:44;;;;;;;15.90;3.70;;;;;;;7.18;46.80;99569.50;68327;1282;1015659;-62
2023/04/04 07:43:46;;;;;;;14.90;3.60;;;;;;;7.40;46.48;99566.66;68311;1282;1015582;-61
2023/04/04 07:46:49;;;;;;;14.20;2.90;;;;;;;7.35;46.31;99569.64;68329;1282;1015906;-62
2023/04/04 07:49:51;;;;;;;16.60;3.20;;;;;;;7.37;45.98;99569.54;68316;1282;1016289;-61
2023/04/04 07:52:54;;;;;;;14.50;3.80;;;;;;;7.46;45.73;99572.35;68321;1282;1015406;-62
2023/04/04 07:55:57;;;;;;;14.20;3.30;;;;;;;7.71;46.14;99565.88;68316;1282;1015737;-61
2023/04/04 07:58:59;;;;;;;15.50;3.20;;;;;;;7.80;45.88;99566.95;68325;1282;1016182;-61
2023/04/04 08:02:01;;;;;;;14.90;3.60;;;;;;;7.99;46.58;99560.30;68319;1282;1015477;-61
2023/04/04 08:05:04;;;;;;;17.50;3.40;;;;;;;8.08;45.16;99556.26;68318;1282;1015284;-61
2023/04/04 08:08:06;;;;;;;15.00;3.50;;;;;;;8.17;45.35;99553.86;68309;1282;1016001;-62
2023/04/04 08:11:09;;;;;;;15.80;3.60;;;;;;;8.49;45.36;99547.87;68310;1282;1015842;-62
2023/04/04 08:14:12;;;;;;;16.30;4.10;;;;;;;8.79;44.97;99550.30;68322;1282;1016199;-61
2023/04/04 08:17:17;;;;;;;14.50;3.80;;;;;;;8.33;44.13;99551.29;68321;1282;1015454;-61
2023/04/04 08:20:20;;;;;;;14.50;3.50;;;;;;;8.28;45.13;99555.66;68260;1284;1015676;-62
2023/04/04 08:26:44;;;;;;;16.30;3.50;;;;;;;7.75;44.83;99559.96;68254;1284;1015973;-61
2023/04/04 08:29:47;;;;;;;14.20;3.40;;;;;;;7.61;45.76;99557.53;68255;1284;1015651;-61
2023/04/04 08:32:50;;;;;;;13.50;3.50;;;;;;;7.75;44.95;99556.16;68267;1284;1016160;-62
2023/04/04 08:35:53;;;;;;;12.10;3.10;;;;;;;8.14;44.72;99546.10;68276;1284;1016099;-61
2023/04/04 08:38:55;;;;;;;13.00;3.10;;;;;;;8.01;44.88;99543.14;68236;1284;1016057;-61
2023/04/04 08:41:58;;;;;;;16.30;3.40;;;;;;;8.18;43.59;99536.55;68262;1284;1015721;-61
2023/04/04 08:45:00;;;;;;;12.30;3.10;;;;;;;8.13;43.76;99532.73;68259;1284;1015507;-62
2023/04/04 08:48:03;;;;;;;15.10;3.40;;;;;;;8.64;44.03;99530.36;68259;1284;1015902;-62
2023/04/04 08:51:07;;;;;;;12.90;3.40;;;;;;;9.10;42.36;99530.66;68262;1284;1015910;-62
2023/04/04 08:54:09;;;;;;;12.50;2.90;;;;;;;9.33;41.56;99522.20;68259;1284;1016278;-62
2023/04/04 08:57:11;;;;;;;14.20;3.20;;;;;;;9.28;41.58;99520.98;68258;1284;1016236;-61
2023/04/04 09:00:15;;;;;;;14.80;3.60;;;;;;;9.80;41.92;99515.11;68247;1284;1015843;-62
2023/04/04 09:03:18;;;;;;;16.20;3.30;;;;;;;10.16;42.58;99521.15;68254;1284;1015618;-62
2023/04/04 09:06:20;;;;;;;14.00;3.30;;;;;;;10.23;40.30;99523.95;68260;1278;1015784;-62
2023/04/04 09:09:22;;;;;;;10.90;3.40;;;;;;;10.32;41.24;99522.48;68255;1284;1015296;-61
2023/04/04 09:12:25;;;;;;;14.70;3.40;;;;;;;9.82;40.15;99523.07;68272;1284;1015286;-61
2023/04/04 09:15:27;;;;;;;12.90;3.10;;;;;;;9.36;40.08;99524.16;68255;1284;1015461;-62
2023/04/04 09:18:29;;;;;;;15.50;3.60;;;;;;;9.17;40.28;99523.21;68288;1282;1015768;-61
2023/04/04 09:21:32;;;;;;;15.30;3.60;;;;;;;9.20;40.71;99514.70;68308;1282;1015962;-62
2023/04/04 09:24:35;;;;;;;14.80;3.50;;;;;;;9.38;41.02;99509.02;68321;1282;1016057;-62
2023/04/04 09:27:37;;;;;;;15.20;3.80;;;;;;;9.78;40.34;99507.21;68319;1282;1015937;-62
2023/04/04 09:30:39;;;;;;;16.90;3.70;;;;;;;9.65;40.14;99515.29;68329;1282;1015547;-62
2023/04/04 09:33:42;;;;;;;13.30;3.20;;;;;;;9.33;40.04;99512.59;68301;1282;1016094;-62
2023/04/04 09:36:44;;;;;;;14.00;3.40;;;;;;;9.30;40.08;99511.65;68313;1282;1015627;-61
2023/04/04 09:39:47;;;;;;;12.70;3.50;;;;;;;9.15;38.95;99522.96;68317;1282;1015608;-62
2023/04/04 09:42:49;;;;;;;15.70;3.50;;;;;;;8.97;39.31;99520.07;68314;1282;1016213;-62
2023/04/04 09:45:52;;;;;;;12.30;3.20;;;;;;;8.80;39.47;99520.10;68293;1282;1016258;-61
2023/04/04 09:48:54;;;;;;;16.10;3.90;;;;;;;8.81;39.65;99523.20;68329;1282;1015290;-62
2023/04/04 09:51:57;;;;;;;13.70;3.40;;;;;;;8.83;39.61;99517.70;68299;1282;1016164;-61
2023/04/04 09:54:59;;;;;;;13.10;3.40;;;;;;;8.88;39.87;99517.49;68314;1282;1015437;-62
2023/04/04 09:58:04;;;;;;;14.40;3.60;;;;;;;9.46;40.14;99509.04;68302;1282;1015336;-62
2023/04/04 10:01:07;;;;;;;14.30;3.10;;;;;;;10.51;39.92;99503.20;68325;1282;1015859;-62
2023/04/04 10:04:09;;;;;;;17.80;3.70;;;;;;;10.79;36.67;99509.84;68312;1282;1015605;-62
2023/04/04 10:07:12;;;;;;;13.90;3.60;;;;;;;10.22;37.49;99508.27;68296;1282;1016078;-62
2023/04/04 10:10:15;;;;;;;13.70;3.50;;;;;;;9.84;37.62;99511.48;68311;1282;1015608;-62
2023/04/04 10:13:17;;;;;;;13.30;3.10;;;;;;;9.49;37.85;99515.17;68309;1282;1015909;-62
2023/04/04 10:16:20;;;;;;;13.10;3.30;;;;;;;9.18;37.36;99511.13;68309;1282;1015292;-62
2023/04/04 10:19:22;;;;;;;12.30;3.20;;;;;;;8.96;37.72;99508.45;68303;1282;1015977;-62
2023/04/04 10:22:25;;;;;;;11.50;3.30;;;;;;;9.06;37.98;99514.81;68326;1282;1015394;-62
2023/04/04 10:25:29;;;;;;;15.60;3.60;;;;;;;9.09;39.24;99510.47;68301;1282;1016618;-62
2023/04/04 10:28:32;;;;;;;13.40;3.10;;;;;;;9.13;38.41;99513.79;68317;1282;1015684;-62
2023/04/04 10:31:34;;;;;;;13.70;3.40;;;;;;;9.00;39.02;99504.08;68321;1282;1015723;-62
2023/04/04 10:34:37;;;;;;;15.00;3.40;;;;;;;9.13;40.33;99503.49;68296;1282;1015621;-62
2023/04/04 10:37:39;;;;;;;;;;;;;;;9.17;39.28;99505.60;68316;1282;1016111;-62
2023/04/04 10:40:41;;;;;;;15.40;3.80;;;;;;;9.06;38.81;99502.77;68301;1282;1015834;-62
2023/04/04 10:43:44;;;;;;;14.20;3.80;;;;;;;8.93;38.99;99503.52;68304;1282;1015594;-62
2023/04/04 10:46:47;;;;;;;12.40;3.40;;;;;;;9.02;39.82;99504.15;68313;1282;1016003;-62
2023/04/04 10:49:49;;;;;;;16.20;4.00;;;;;;;8.94;38.43;99516.38;68313;1282;1014375;-62
2023/04/04 10:52:51;;;;;;;14.50;3.70;;;;;;;8.89;39.54;99513.98;68299;1282;1015884;-62
2023/04/04 10:55:54;;;;;;;14.80;3.50;;;;;;;8.95;38.79;99516.14;68315;1282;1015627;-62
2023/04/04 10:58:57;;;;;;;15.00;3.50;;;;;;;9.12;38.89;99513.52;68320;1282;1016219;-62
2023/04/04 11:01:59;;;;;;;15.60;3.90;;;;;;;9.17;38.35;99510.14;68305;1282;1016039;-62
2023/04/04 11:05:02;;;;;;;;;;;;;;;9.34;38.30;99496.11;68324;1282;1015883;-62
2023/04/04 11:08:05;;;;;;;12.50;3.60;;;;;;;9.32;38.16;99505.28;68294;1282;1015481;-62
2023/04/04 11:11:08;;;;;;;14.60;3.50;;;;;;;9.39;38.49;99502.20;68311;1282;1015290;-62
2023/04/04 11:14:10;;;;;;;15.90;3.60;;;;;;;9.41;37.91;99503.98;68300;1282;1015077;-62
2023/04/04 11:17:13;;;;;;;15.40;3.80;;;;;;;9.57;38.01;99495.27;68307;1282;1015537;-62
2023/04/04 11:20:15;;;;;;;;;;;;;;;9.46;37.30;99497.52;68314;1282;1016131;-62
2023/04/04 11:23:19;;;;;;;16.80;3.70;;;;;;;9.22;37.01;99511.15;68306;1282;1016117;-62
2023/04/04 11:26:22;;;;;;;15.50;3.60;;;;;;;9.10;37.50;99499.11;68310;1282;1015555;-62
2023/04/04 11:29:25;;;;;;;17.80;3.60;;;;;;;9.27;38.15;99501.83;68306;1282;1017122;-62
2023/04/04 11:32:27;;;;;;;12.60;3.00;;;;;;;9.28;37.50;99504.25;68300;1282;1016084;-62
2023/04/04 11:35:30;;;;;;;13.40;3.10;;;;;;;9.32;38.16;99500.93;68302;1282;1016065;-62
2023/04/04 11:38:32;;;;;;;13.80;3.80;;;;;;;9.40;39.03;99494.10;68330;1282;1015576;-62
2023/04/04 11:41:34;;;;;;;13.80;3.20;;;;;;;9.50;37.93;99498.21;68309;1282;1015438;-62
2023/04/04 11:44:37;;;;;;;14.60;3.60;;;;;;;9.54;37.76;99497.98;68304;1282;1015584;-62
2023/04/04 11:47:41;;;;;;;15.10;3.40;;;;;;;9.34;36.94;99508.88;68306;1282;1016081;-62
2023/04/04 11:50:43;;;;;;;13.30;3.20;;;;;;;9.45;36.91;99507.85;68305;1282;1015478;-62
2023/04/04 11:53:46;;;;;;;15.50;3.60;;;;;;;9.56;38.16;99494.43;68299;1282;1016419;-62
2023/04/04 11:56:48;;;;;;;12.70;3.60;;;;;;;9.88;37.08;99489.09;68298;1282;1015466;-62
2023/04/04 11:59:50;;;;;;;14.80;3.60;;;;;;;10.11;36.77;99486.23;68302;1282;1015211;-62
2023/04/04 12:02:53;;;;;;;16.60;3.70;;;;;;;9.92;36.59;99489.28;68297;1282;1015954;-62
2023/04/04 12:05:56;;;;;;;12.00;3.40;;;;;;;9.59;36.20;99499.16;68301;1282;1016080;-62
2023/04/04 12:08:59;;;;;;;17.90;3.60;;;;;;;9.28;36.40;99499.02;68307;1282;1015867;-62
2023/04/04 12:12:02;;;;;;;13.60;3.50;;;;;;;9.20;37.18;99494.13;68297;1282;1015733;-62
2023/04/04 12:15:04;;;;;;;13.40;3.50;;;;;;;9.09;38.31;99492.88;68295;1282;1015582;-62
2023/04/04 12:18:07;;;;;;;13.30;3.60;;;;;;;9.04;37.55;99487.01;68302;1282;1015211;-62
2023/04/04 12:21:09;;;;;;;13.30;3.50;;;;;;;9.04;37.16;99494.86;68305;1282;1016227;-62
2023/04/04 12:24:11;;;;;;;15.70;3.70;;;;;;;9.04;36.79;99492.90;68297;1282;1015744;-62
2023/04/04 12:27:14;;;;;;;11.30;3.30;;;;;;;9.06;37.46;99487.56;68298;1282;1015834;-62
2023/04/04 12:30:16;;;;;;;16.50;3.60;;;;;;;8.88;36.07;99495.70;68313;1282;1015437;-62
2023/04/04 12:33:19;;;;;;;14.70;3.50;;;;;;;8.81;37.03;99496.89;68313;1282;1015593;-62
2023/04/04 12:36:21;;;;;;;11.30;3.20;;;;;;;8.80;36.80;99488.02;68301;1282;1015339;-62
2023/04/04 12:39:23;;;;;;;14.90;3.60;;;;;;;8.71;37.42;99487.02;68304;1282;1014271;-62
2023/04/04 12:42:26;;;;;;;12.40;3.40;;;;;;;8.77;37.77;99482.23;68310;1282;1015458;-62
2023/04/04 12:45:28;;;;;;;14.30;3.30;;;;;;;8.92;37.56;99483.67;68302;1282;1016082;-62
2023/04/04 12:48:33;;;;;;;12.60;3.40;;;;;;;9.11;37.34;99488.27;68318;1282;1016703;-62
2023/04/04 12:51:35;;;;;;;15.70;3.40;;;;;;;9.23;37.25;99485.11;68306;1282;1015696;-62
2023/04/04 12:54:37;;;;;;;14.00;3.20;;;;;;;8.96;35.76;99490.66;68296;1282;1016024;-62
2023/04/04 12:57:40;;;;;;;14.00;3.00;;;;;;;8.64;36.12;99497.27;68297;1282;1015602;-62
2023/04/04 13:00:43;;;;;;;14.50;3.50;;;;;;;8.50;36.37;99496.24;68306;1282;1015511;-62
2023/04/04 13:03:46;;;;;;;15.10;3.40;;;;;;;8.56;36.83;99499.34;68308;1282;1015316;-62
2023/04/04 13:06:49;;;;;;;15.00;3.80;;;;;;;8.55;37.05;99508.43;68306;1282;1016577;-62
2023/04/04 13:09:52;;;;;;;11.70;3.30;;;;;;;8.31;36.64;99509.89;68304;1282;1015718;-62
2023/04/04 13:12:55;;;;;;;17.20;3.50;;;;;;;8.19;37.28;99512.81;68287;1282;1016074;-62
2023/04/04 13:15:58;;;;;;;13.90;3.50;;;;;;;8.12;37.42;99505.60;68298;1282;1015465;-62
2023/04/04 13:19:00;;;;;;;14.90;3.80;;;;;;;7.96;37.27;99507.65;68315;1282;1016096;-62
2023/04/04 13:22:02;;;;;;;10.10;3.10;;;;;;;7.84;36.72;99513.17;65753;1275;5386334;-62
2023/04/04 13:25:05;;;;;;;16.70;3.60;;;;;;;7.79;36.39;99510.74;68305;1282;1015342;-62
2023/04/04 13:28:10;;;;;;;;;;;;;;;7.67;36.85;99507.36;68308;1282;1015223;-62
2023/04/04 13:31:14;;;;;;;16.50;3.90;;;;;;;7.62;38.13;99522.37;68322;1282;1015512;-62
2023/04/04 13:34:16;;;;;;;16.60;4.50;;;;;;;7.52;38.99;99519.58;68284;1282;1017353;-62
2023/04/04 13:37:19;;;;;;;17.00;4.00;;;;;;;7.34;38.56;99510.32;68304;1282;1015926;-62
2023/04/04 13:40:21;;;;;;;14.20;3.70;;;;;;;7.16;38.42;99520.54;68301;1282;1015662;-62
2023/04/04 13:43:24;;;;;;;15.30;4.00;;;;;;;7.06;38.66;99518.27;68300;1282;1015960;-62
2023/04/04 13:46:26;;;;;;;15.10;3.50;;;;;;;6.99;38.32;99518.35;68301;1282;1016022;-62
2023/04/04 13:49:29;;;;;;;15.70;4.20;;;;;;;6.98;38.66;99523.79;68307;1282;1015726;-62
2023/04/04 13:52:32;;;;;;;13.80;3.50;;;;;;;6.86;39.09;99522.98;68302;1282;1015634;-62
2023/04/04 13:55:34;;;;;;;13.30;3.80;;;;;;;6.94;38.82;99513.48;68291;1282;1015652;-62
2023/04/04 13:58:36;;;;;;;14.10;3.50;;;;;;;6.91;38.00;99517.58;68303;1259;1015881;-62
2023/04/04 14:01:41;;;;;;;12.80;3.40;;;;;;;6.99;38.81;99511.77;68301;1282;1015300;-62
2023/04/04 14:04:44;;;;;;;15.20;3.60;;;;;;;7.07;37.95;99515.10;68304;1282;1014750;-62